那覇空港の過去48時間の天気

那覇空港 (Naha)

現在時刻: 4/22 22:07 JST (4/22 13:07 UTC) 以下の時間は現地時間です。

過去48時間のMETAR気象情報
時間 風向 風速(m/s) 視程 気温(℃) 湿度(%) 気圧(hPa) 天気現象
22 21:30 東南東 5 10km以上 24 78 1012
22 21:00 東南東 4 10km以上 24 78 1012
22 20:30 東南東 5 10km以上 24 78 1012
22 20:00 東南東 5 10km以上 24 78 1012
22 19:30 東南東 5 10km以上 24 78 1011
22 19:00 南東 5 10km以上 24 78 1011
22 18:30 南東 5 10km以上 24 78 1011
22 18:00 東南東 4 10km以上 25 74 1010
22 17:30 東南東 5 10km以上 25 74 1010
22 17:00 南東 5 10km以上 25 74 1010
22 16:30 東南東 5 10km以上 26 65 1010
22 16:00 東南東 5 10km以上 26 70 1010
22 15:30 南東 5 10km以上 26 70 1010
22 15:00 4 10km以上 26 70 1010
22 14:30 東南東 4 10km以上 26 70 1010
22 14:00 東南東 4 10km以上 26 70 1011
22 13:30 5 10km以上 27 66 1011
22 13:00 東南東 4 10km以上 27 66 1011
22 12:30 東南東 3 10km以上 26 70 1011
22 12:00 東南東 4 10km以上 26 70 1012
22 11:30 南東 4 10km以上 26 74 1012
22 11:00 東南東 4 10km以上 26 70 1012
22 10:30 東南東 5 10km以上 26 70 1011
22 10:00 東南東 4 10km以上 26 70 1011
22 09:30 南東 4 10km以上 26 70 1011
22 09:00 4 10km以上 25 74 1011
22 08:30 東南東 5 10km以上 25 74 1010
22 08:00 東南東 4 10km以上 24 78 1010
22 07:30 4 10km以上 24 78 1010
22 07:00 4 10km以上 23 83 1010
22 06:30 4 10km以上 23 83 1010
22 06:00 4 10km以上 23 83 1009
22 05:30 3 10km以上 23 83 1009
22 05:00 3 10km以上 23 89 1009
22 04:30 東北東 3 10km以上 23 89 1009
22 04:00 3 10km以上 23 83 1009
22 03:30 東北東 3 10km以上 23 83 1009
22 03:00 3 10km以上 23 89 1009
22 02:30 3 10km以上 23 89 1010
22 02:00 3 10km以上 23 89 1010
22 01:30 3 10km以上 23 89 1010
22 01:00 3 10km以上 23 89 1010
22 00:30 東北東 3 10km以上 23 89 1010
22 00:00 2 10km以上 23 89 1010
21 23:30 3 10km以上 23 89 1011
21 23:00 2 10km以上 23 89 1010
21 22:30 3 10km以上 24 83 1010
21 22:00 東北東 2 10km以上 24 83 1010
21 21:30 東北東 3 10km以上 24 83 1010
21 21:00 3 10km以上 24 83 1010
21 20:30 3 10km以上 24 83 1009
21 20:00 東南東 3 10km以上 24 83 1009
21 19:30 東南東 3 10km以上 24 83 1009
21 19:00 2 10km以上 24 83 1008
21 18:30 3 10km以上 24 83 1008
21 18:00 3 10km以上 24 83 1008
21 17:30 3 10km以上 25 78 1008
21 17:00 3 10km以上 25 78 1008
21 16:30 東北東 4 10km以上 25 78 1007
21 16:00 4 10km以上 25 78 1007 弱い雨
21 15:30 4 10km以上 25 78 1007 弱い雨
21 15:00 4 10km以上 25 78 1007 弱い雨
21 14:30 東北東 4 10km以上 25 78 1008
21 14:00 4 10km以上 25 78 1008
21 13:30 4 10km以上 26 74 1008
21 13:00 北東 3 10km以上 27 70 1008
21 12:30 3 10km以上 26 74 1008
21 12:00 北北東 2 10km以上 26 79 1008
21 11:30 北北東 3 10km以上 26 79 1008
21 11:00 3 10km以上 26 74 1009
21 10:30 北北西 3 10km以上 26 79 1009
21 10:00 北西 4 10km以上 25 83 1008
21 09:30 3 10km以上 25 83 1008
21 09:00 北北西 3 10km以上 25 89 1008
21 08:30 西北西 3 10km以上 25 89 1008
21 08:00 西 3 10km以上 25 89 1007
21 07:30 西 4 10km以上 24 94 1007
21 07:00 西南西 5 10km以上 24 89 1007
21 06:30 南西 4 10km以上 24 89 1007
21 06:00 南南西 3 10km以上 24 89 1007 弱いしゅう雨
21 05:30 東南東 2 10km以上 23 89 1006
21 05:00 東南東 3 10km以上 23 89 1006
21 04:30 東南東 3 10km以上 22 94 1006
ROAH 221230Z 12009KT 9999 FEW012 BKN100 24/20 Q1012 RMK 2CU012 7AC100 A2991
ROAH 221200Z 12008KT 9999 FEW015 BKN100 24/20 Q1012 RMK 1CU015 7AC100 A2990
ROAH 221130Z 11009KT 9999 FEW015 BKN080 24/20 Q1012 RMK 1CU015 7AC080 A2989
ROAH 221100Z 12010KT 9999 FEW015 SCT060 BKN080 24/20 Q1012 RMK 1CU015 4SC060 7AC080 A2988
ROAH 221030Z 12010KT 9999 FEW015 BKN060 BKN080 24/20 Q1011 RMK 1CU015 5SC060 7AC080 A2987
ROAH 221000Z 13009KT 9999 FEW015 BKN060 BKN080 24/20 Q1011 RMK 1CU015 6SC060 7AC080 A2987
ROAH 220930Z 13010KT 9999 FEW015 BKN030 BKN080 24/20 Q1011 RMK 1CU015 5CU030 7AC080 A2986
ROAH 220900Z 11008KT 070V140 9999 SCT015 BKN030 BKN080 25/20 Q1010 RMK 3CU015 5CU030 7AC080 A2985
ROAH 220830Z 12009KT 9999 FEW020 SCT030 BKN080 25/20 Q1010 RMK 1CU020 4CU030 7AC080 A2985
ROAH 220800Z 14010KT 9999 FEW020 SCT030 BKN080 25/20 Q1010 RMK 2CU020 4CU030 7AC080 A2985
ROAH 220730Z 11009KT 080V150 9999 FEW020 SCT030 BKN080 26/19 Q1010 RMK 1CU020 3CU030 7AC080 A2984
ROAH 220700Z 12010KT 080V150 9999 FEW020 SCT030 BKN080 26/20 Q1010 RMK 1CU020 3CU030 6AC080 A2984
ROAH 220630Z 13009KT 080V150 9999 FEW020 SCT030 BKN080 26/20 Q1010 RMK 1CU020 3CU030 7AC080 A2984
ROAH 220600Z 08008KT 050V140 9999 FEW020 SCT030 BKN080 26/20 Q1010 RMK 1CU020 3CU030 7AC080 A2985
ROAH 220530Z 11008KT 080V140 9999 FEW020 BKN030 26/20 Q1010 RMK 2CU020 6CU030 A2985
ROAH 220500Z 11008KT 050V150 9999 FEW020 BKN030 26/20 Q1011 RMK 2CU020 6CU030 A2985
ROAH 220430Z 09009KT 050V130 9999 FEW020 BKN030 27/20 Q1011 RMK 2CU020 5CU030 A2986
ROAH 220400Z 11008KT 050V150 9999 FEW020 BKN030 27/20 Q1011 RMK 2CU020 5CU030 A2987
ROAH 220330Z 11006KT 050V150 9999 FEW020 BKN030 26/20 Q1011 RMK 2CU020 5CU030 A2987
ROAH 220300Z 11008KT 9999 SCT016 BKN020 26/20 Q1012 RMK 4CU016 6CU020 A2989
ROAH 220230Z 13008KT 080V150 9999 SCT016 BKN020 26/21 Q1012 RMK 4CU016 6CU020 A2988
ROAH 220200Z 12008KT 080V140 9999 SCT017 BKN020 26/20 Q1012 RMK 3CU017 5CU020 A2989
ROAH 220130Z 12009KT 070V160 9999 FEW010 BKN020 26/20 Q1011 RMK 1CU010 5CU020 A2988
ROAH 220100Z 12008KT 9999 FEW010 BKN020 26/20 Q1011 RMK 1CU010 5CU020 A2988
ROAH 220030Z 13008KT 080V150 9999 SCT015 26/20 Q1011 RMK 3CU015 A2987
ROAH 220000Z 10008KT 050V150 9999 FEW015 25/20 Q1011 RMK 1CU015 A2986
ROAH 212330Z 11009KT 9999 FEW015 25/20 Q1010 RMK 1CU015 A2985
ROAH 212300Z 11008KT 9999 FEW015 24/20 Q1010 RMK 1CU015 A2984
ROAH 212230Z 10007KT 060V130 9999 FEW015 SCT035 BKN080 24/20 Q1010 RMK 1CU015 3SC035 5AC080 A2984
ROAH 212200Z 09007KT 050V120 9999 FEW015 SCT035 BKN080 23/20 Q1010 RMK 1CU015 3SC035 5AC080 A2984
ROAH 212130Z 08007KT 050V120 9999 FEW015 BKN030 23/20 Q1010 RMK 1CU015 5CU030 A2983
ROAH 212100Z 08007KT 050V110 9999 FEW015 BKN030 23/20 Q1009 RMK 1CU015 6CU030 A2982
ROAH 212030Z 09006KT 050V130 9999 FEW015 BKN030 23/20 Q1009 RMK 1CU015 6CU030 A2982
ROAH 212000Z 09006KT 060V130 9999 FEW012 SCT030 23/21 Q1009 RMK 1CU012 4CU030 A2982
ROAH 211930Z 07005KT 040V110 9999 FEW012 SCT035 23/21 Q1009 RMK 1CU012 4CU035 A2982
ROAH 211900Z 08005KT 060V120 9999 FEW012 BKN035 23/20 Q1009 RMK 1CU012 6CU035 A2982
ROAH 211830Z 07005KT 040V110 9999 FEW012 BKN033 23/20 Q1009 RMK 1CU012 7CU033 A2982
ROAH 211800Z 09005KT 040V120 9999 FEW012 BKN033 23/21 Q1009 RMK 1CU012 7CU033 A2982
ROAH 211730Z 08005KT 050V120 9999 FEW012 BKN033 23/21 Q1010 RMK 1CU012 7CU033 A2982
ROAH 211700Z 08005KT 040V110 9999 FEW012 BKN033 23/21 Q1010 RMK 1CU012 7CU033 A2983
ROAH 211630Z 08005KT 9999 FEW012 BKN033 23/21 Q1010 RMK 1CU012 7CU033 A2983
ROAH 211600Z 10005KT 9999 FEW012 BKN033 23/21 Q1010 RMK 1CU012 7CU033 A2984
ROAH 211530Z 07005KT 050V110 9999 FEW012 BKN033 23/21 Q1010 RMK 1CU012 7CU033 A2984
ROAH 211500Z 08004KT 9999 FEW015 BKN033 23/21 Q1010 RMK 1CU015 6CU033 A2985
ROAH 211430Z 08005KT 050V120 9999 FEW015 BKN200 23/21 Q1011 RMK 1CU015 5AC200 A2985
ROAH 211400Z 08004KT 050V110 9999 FEW015 23/21 Q1010 RMK 1CU015 A2985
ROAH 211330Z 09005KT 060V120 9999 FEW015 SCT035 24/21 Q1010 RMK 1CU015 3SC035 A2985
ROAH 211300Z 07004KT 050V110 9999 FEW015 BKN035 24/21 Q1010 RMK 1CU015 5SC035 A2985
ROAH 211230Z 07005KT 050V120 9999 FEW015 SCT025 BKN035 24/21 Q1010 RMK 1CU015 3CU025 5SC035 A2984
ROAH 211200Z 10005KT 9999 BKN020 24/21 Q1010 RMK 5CU020 A2983
ROAH 211130Z 10005KT 070V140 9999 SCT015 24/21 Q1009 RMK 4CU015 A2982
ROAH 211100Z 11006KT 080V140 9999 FEW015 SCT080 24/21 Q1009 RMK 1CU015 4AC080 A2981
ROAH 211030Z 12006KT 9999 FEW015 SCT080 24/21 Q1009 RMK 1CU015 4AC080 A2979
ROAH 211000Z 09004KT 030V170 9999 FEW015 SCT070 BKN150 24/21 Q1008 RMK 1CU015 3AC070 5AC150 A2979
ROAH 210930Z 10006KT 9999 FEW015 SCT070 BKN150 24/21 Q1008 RMK 1CU015 4AC070 7AC150 A2978
ROAH 210900Z 08006KT 040V130 9999 FEW020 BKN150 24/21 Q1008 RMK 2CU020 7AC150 A2977
ROAH 210830Z 09006KT 050V130 9999 FEW020 BKN150 25/21 Q1008 RMK 2CU020 7AC150 A2977
ROAH 210800Z 10006KT 050V140 9999 FEW020 BKN150 25/21 Q1008 RMK 2CU020 7AC150 A2977
ROAH 210730Z 07007KT 030V150 9999 FEW015 SCT050 BKN150 25/21 Q1007 RMK 1CU015 3SC050 7AC150 A2976
ROAH 210700Z 09008KT 050V150 9999 -RA FEW015 SCT040 BKN150 25/21 Q1007 RMK 1CU015 4SC040 7AC150 A2975
ROAH 210630Z 10007KT 030V140 9999 -RA FEW015 SCT025 BKN/// 25/21 Q1007
ROAH 210600Z 08007KT 350V150 9999 -RA FEW015 SCT025 BKN/// 25/21 Q1007
ROAH 210530Z 07008KT 040V110 9999 FEW015 SCT025 BKN/// 25/21 Q1008
ROAH 210500Z 08007KT 040V130 9999 FEW015 SCT025 BKN/// 25/21 Q1008
ROAH 210430Z 08008KT 050V140 9999 FEW015 SCT028 BKN/// 26/21 Q1008
ROAH 210400Z 05006KT 360V180 9999 FEW018 SCT028 BKN/// 27/21 Q1008
ROAH 210330Z 01006KT 320V080 9999 FEW018 BKN028 26/21 Q1008 RMK 2CU018 5CU028 A2978
ROAH 210300Z 02004KT 290V110 9999 FEW015 BKN025 26/22 Q1008 RMK 2CU015 6CU025 A2979
ROAH 210230Z 02006KT 340V080 9999 FEW013 BKN023 26/22 Q1008 RMK 1CU013 5CU023 A2979
ROAH 210200Z 36005KT 320V040 9999 FEW013 SCT023 26/21 Q1009 RMK 1CU013 4CU023 A2979
ROAH 210130Z 33005KT 290V030 9999 FEW013 SCT023 BKN/// 26/22 Q1009
ROAH 210100Z 32007KT 300V020 9999 FEW010 SCT025 BKN/// 25/22 Q1008 RMK 1CU010 3CU025 A2979
ROAH 210030Z 35005KT 310V020 9999 FEW010 25/22 Q1008 RMK 2CU010 A2978
ROAH 210000Z 33005KT 280V360 9999 FEW010 SCT030 25/23 Q1008 RMK 1CU010 3CU030 A2978
ROAH 202330Z 30005KT 280V050 9999 FEW010 SCT030 25/23 Q1008 RMK 1CU010 3CU030 A2977
ROAH 202300Z 26005KT 9999 FEW010 25/23 Q1007 RMK 2CU010 A2976
ROAH 202230Z 26007KT 9999 FEW010 SCT030 24/23 Q1007 RMK 1CU010 3CU030 A2975
ROAH 202200Z 24009KT 9999 FEW010 SCT030 24/22 Q1007 RMK 2CU010 4CU030 A2975
ROAH 202130Z 23008KT 9999 SCT010 BKN035 24/22 Q1007 RMK 4CU010 6SC035 A2974
ROAH 202100Z 21005KT 9999 -SHRA SCT010 BKN035 24/22 Q1007 RMK 4CU010 6SC035 A2974
ROAH 202030Z 11004KT 080V170 9999 FEW010 BKN040 23/21 Q1006 RMK 2CU010 6SC040 A2973
ROAH 202000Z 11005KT 9999 FEW015 BKN040 23/21 Q1006 RMK 2CU015 6SC040 A2972
ROAH 201930Z 11006KT 9999 FEW015 BKN040 22/21 Q1006 RMK 2CU015 6SC040 A2972